sensor_id;sensor_type;location;lat;lon;timestamp;P1;durP1;ratioP1;P2;durP2;ratioP2
18104;SDS011;9179;50.968;3.134;2024-02-16T00:02:15;6.45;;;5.70;;
18104;SDS011;9179;50.968;3.134;2024-02-16T00:04:43;4.40;;;4.00;;
18104;SDS011;9179;50.968;3.134;2024-02-16T00:07:11;4.55;;;4.13;;
18104;SDS011;9179;50.968;3.134;2024-02-16T00:09:38;4.50;;;4.03;;
18104;SDS011;9179;50.968;3.134;2024-02-16T00:12:05;4.78;;;4.40;;
18104;SDS011;9179;50.968;3.134;2024-02-16T00:14:32;5.75;;;5.15;;
18104;SDS011;9179;50.968;3.134;2024-02-16T00:16:59;5.13;;;4.63;;
18104;SDS011;9179;50.968;3.134;2024-02-16T00:19:26;4.78;;;4.35;;
18104;SDS011;9179;50.968;3.134;2024-02-16T00:21:53;6.07;;;4.97;;
18104;SDS011;9179;50.968;3.134;2024-02-16T00:24:22;4.80;;;4.22;;
18104;SDS011;9179;50.968;3.134;2024-02-16T00:26:49;5.22;;;4.63;;
18104;SDS011;9179;50.968;3.134;2024-02-16T00:29:16;5.18;;;4.78;;
18104;SDS011;9179;50.968;3.134;2024-02-16T00:31:43;4.32;;;4.03;;
18104;SDS011;9179;50.968;3.134;2024-02-16T00:34:09;5.57;;;4.43;;
18104;SDS011;9179;50.968;3.134;2024-02-16T00:36:36;5.00;;;4.53;;
18104;SDS011;9179;50.968;3.134;2024-02-16T00:39:03;4.55;;;4.15;;
18104;SDS011;9179;50.968;3.134;2024-02-16T00:41:31;4.43;;;4.03;;
18104;SDS011;9179;50.968;3.134;2024-02-16T00:43:59;5.22;;;4.68;;
18104;SDS011;9179;50.968;3.134;2024-02-16T00:46:27;5.65;;;4.25;;
18104;SDS011;9179;50.968;3.134;2024-02-16T00:48:53;4.40;;;4.05;;
18104;SDS011;9179;50.968;3.134;2024-02-16T00:51:21;5.05;;;4.43;;
18104;SDS011;9179;50.968;3.134;2024-02-16T00:53:50;4.97;;;4.25;;
18104;SDS011;9179;50.968;3.134;2024-02-16T00:56:17;5.05;;;4.47;;
18104;SDS011;9179;50.968;3.134;2024-02-16T00:58:46;5.22;;;4.72;;
18104;SDS011;9179;50.968;3.134;2024-02-16T01:01:13;4.75;;;4.35;;
18104;SDS011;9179;50.968;3.134;2024-02-16T01:03:40;5.72;;;4.45;;
18104;SDS011;9179;50.968;3.134;2024-02-16T01:06:07;6.88;;;5.18;;
18104;SDS011;9179;50.968;3.134;2024-02-16T01:08:35;6.18;;;4.63;;
18104;SDS011;9179;50.968;3.134;2024-02-16T01:11:02;6.63;;;5.20;;
18104;SDS011;9179;50.968;3.134;2024-02-16T01:13:29;5.15;;;4.65;;
18104;SDS011;9179;50.968;3.134;2024-02-16T01:15:59;6.88;;;3.85;;
18104;SDS011;9179;50.968;3.134;2024-02-16T01:18:27;4.57;;;4.22;;
18104;SDS011;9179;50.968;3.134;2024-02-16T01:20:55;5.75;;;4.38;;
18104;SDS011;9179;50.968;3.134;2024-02-16T01:23:21;5.13;;;4.72;;
18104;SDS011;9179;50.968;3.134;2024-02-16T01:25:48;4.70;;;4.30;;
18104;SDS011;9179;50.968;3.134;2024-02-16T01:28:15;4.45;;;4.15;;
18104;SDS011;9179;50.968;3.134;2024-02-16T01:30:42;4.53;;;4.13;;
18104;SDS011;9179;50.968;3.134;2024-02-16T01:33:11;4.65;;;4.25;;
18104;SDS011;9179;50.968;3.134;2024-02-16T01:35:38;4.43;;;4.03;;
18104;SDS011;9179;50.968;3.134;2024-02-16T01:38:05;4.25;;;3.83;;
18104;SDS011;9179;50.968;3.134;2024-02-16T01:40:32;5.07;;;4.20;;
18104;SDS011;9179;50.968;3.134;2024-02-16T01:42:59;4.72;;;4.32;;
18104;SDS011;9179;50.968;3.134;2024-02-16T01:45:26;5.05;;;4.65;;
18104;SDS011;9179;50.968;3.134;2024-02-16T01:47:53;6.47;;;4.50;;
18104;SDS011;9179;50.968;3.134;2024-02-16T01:50:22;4.82;;;4.43;;
18104;SDS011;9179;50.968;3.134;2024-02-16T01:52:49;4.78;;;4.38;;
18104;SDS011;9179;50.968;3.134;2024-02-16T01:55:17;4.47;;;4.07;;
18104;SDS011;9179;50.968;3.134;2024-02-16T01:57:44;4.97;;;4.40;;
18104;SDS011;9179;50.968;3.134;2024-02-16T02:00:13;4.90;;;4.50;;
18104;SDS011;9179;50.968;3.134;2024-02-16T02:02:44;4.97;;;4.57;;
18104;SDS011;9179;50.968;3.134;2024-02-16T02:05:12;4.82;;;4.30;;
18104;SDS011;9179;50.968;3.134;2024-02-16T02:07:41;4.72;;;4.30;;
18104;SDS011;9179;50.968;3.134;2024-02-16T02:10:09;4.53;;;4.13;;
18104;SDS011;9179;50.968;3.134;2024-02-16T02:12:37;4.55;;;4.25;;
18104;SDS011;9179;50.968;3.134;2024-02-16T02:15:05;5.28;;;4.35;;
18104;SDS011;9179;50.968;3.134;2024-02-16T02:17:32;4.50;;;4.20;;
18104;SDS011;9179;50.968;3.134;2024-02-16T02:19:59;4.80;;;4.40;;
18104;SDS011;9179;50.968;3.134;2024-02-16T02:22:27;6.53;;;4.93;;
18104;SDS011;9179;50.968;3.134;2024-02-16T02:24:54;5.07;;;4.68;;
18104;SDS011;9179;50.968;3.134;2024-02-16T02:27:21;4.85;;;4.40;;
18104;SDS011;9179;50.968;3.134;2024-02-16T02:29:48;4.60;;;4.20;;
18104;SDS011;9179;50.968;3.134;2024-02-16T02:32:16;5.28;;;4.85;;
18104;SDS011;9179;50.968;3.134;2024-02-16T02:34:43;4.85;;;4.45;;
18104;SDS011;9179;50.968;3.134;2024-02-16T02:37:10;4.68;;;4.28;;
18104;SDS011;9179;50.968;3.134;2024-02-16T02:39:38;4.90;;;4.15;;
18104;SDS011;9179;50.968;3.134;2024-02-16T02:42:06;5.43;;;4.32;;
18104;SDS011;9179;50.968;3.134;2024-02-16T02:44:34;6.97;;;5.32;;
18104;SDS011;9179;50.968;3.134;2024-02-16T02:47:02;9.43;;;5.35;;
18104;SDS011;9179;50.968;3.134;2024-02-16T02:49:28;6.65;;;6.05;;
18104;SDS011;9179;50.968;3.134;2024-02-16T02:51:56;4.28;;;3.80;;
18104;SDS011;9179;50.968;3.134;2024-02-16T02:54:23;5.13;;;4.63;;
18104;SDS011;9179;50.968;3.134;2024-02-16T02:56:51;5.32;;;4.35;;
18104;SDS011;9179;50.968;3.134;2024-02-16T02:59:18;4.45;;;4.10;;
18104;SDS011;9179;50.968;3.134;2024-02-16T03:01:45;4.35;;;3.95;;
18104;SDS011;9179;50.968;3.134;2024-02-16T03:04:12;4.40;;;4.10;;
18104;SDS011;9179;50.968;3.134;2024-02-16T03:06:39;4.30;;;3.90;;
18104;SDS011;9179;50.968;3.134;2024-02-16T03:09:06;4.40;;;4.05;;
18104;SDS011;9179;50.968;3.134;2024-02-16T03:11:33;4.30;;;3.92;;
18104;SDS011;9179;50.968;3.134;2024-02-16T03:14:02;4.18;;;3.83;;
18104;SDS011;9179;50.968;3.134;2024-02-16T03:16:30;4.70;;;3.65;;
18104;SDS011;9179;50.968;3.134;2024-02-16T03:18:57;4.60;;;4.20;;
18104;SDS011;9179;50.968;3.134;2024-02-16T03:21:24;4.57;;;4.18;;
18104;SDS011;9179;50.968;3.134;2024-02-16T03:23:51;4.30;;;3.85;;
18104;SDS011;9179;50.968;3.134;2024-02-16T03:26:18;4.55;;;3.65;;
18104;SDS011;9179;50.968;3.134;2024-02-16T03:28:46;5.25;;;4.13;;
18104;SDS011;9179;50.968;3.134;2024-02-16T03:31:18;4.28;;;3.85;;
18104;SDS011;9179;50.968;3.134;2024-02-16T03:33:46;4.00;;;3.70;;
18104;SDS011;9179;50.968;3.134;2024-02-16T03:36:13;4.18;;;3.80;;
18104;SDS011;9179;50.968;3.134;2024-02-16T03:38:41;4.22;;;3.70;;
18104;SDS011;9179;50.968;3.134;2024-02-16T03:41:12;4.90;;;4.03;;
18104;SDS011;9179;50.968;3.134;2024-02-16T03:43:41;5.65;;;4.20;;
18104;SDS011;9179;50.968;3.134;2024-02-16T03:46:09;4.57;;;4.18;;
18104;SDS011;9179;50.968;3.134;2024-02-16T03:48:37;4.85;;;3.83;;
18104;SDS011;9179;50.968;3.134;2024-02-16T03:51:05;3.80;;;3.50;;
18104;SDS011;9179;50.968;3.134;2024-02-16T03:53:32;4.30;;;3.90;;
18104;SDS011;9179;50.968;3.134;2024-02-16T03:56:00;4.38;;;3.97;;
18104;SDS011;9179;50.968;3.134;2024-02-16T03:58:27;4.82;;;4.40;;
18104;SDS011;9179;50.968;3.134;2024-02-16T04:00:54;4.38;;;3.97;;
18104;SDS011;9179;50.968;3.134;2024-02-16T04:03:21;5.18;;;4.28;;
18104;SDS011;9179;50.968;3.134;2024-02-16T04:05:49;5.30;;;4.85;;
18104;SDS011;9179;50.968;3.134;2024-02-16T04:08:18;4.57;;;4.18;;
18104;SDS011;9179;50.968;3.134;2024-02-16T04:10:45;4.90;;;4.43;;
18104;SDS011;9179;50.968;3.134;2024-02-16T04:13:12;4.35;;;3.95;;
18104;SDS011;9179;50.968;3.134;2024-02-16T04:15:39;4.43;;;4.05;;
18104;SDS011;9179;50.968;3.134;2024-02-16T04:18:06;4.97;;;4.43;;
18104;SDS011;9179;50.968;3.134;2024-02-16T04:20:33;5.35;;;4.05;;
18104;SDS011;9179;50.968;3.134;2024-02-16T04:23:01;7.03;;;4.63;;
18104;SDS011;9179;50.968;3.134;2024-02-16T04:25:28;5.20;;;4.30;;
18104;SDS011;9179;50.968;3.134;2024-02-16T04:27:55;4.47;;;3.80;;
18104;SDS011;9179;50.968;3.134;2024-02-16T04:30:22;6.93;;;4.50;;
18104;SDS011;9179;50.968;3.134;2024-02-16T04:32:49;4.40;;;4.00;;
18104;SDS011;9179;50.968;3.134;2024-02-16T04:35:16;4.93;;;4.43;;
18104;SDS011;9179;50.968;3.134;2024-02-16T04:37:43;4.00;;;3.65;;
18104;SDS011;9179;50.968;3.134;2024-02-16T04:40:12;6.43;;;4.32;;
18104;SDS011;9179;50.968;3.134;2024-02-16T04:42:39;5.05;;;4.60;;
18104;SDS011;9179;50.968;3.134;2024-02-16T04:45:06;4.40;;;4.00;;
18104;SDS011;9179;50.968;3.134;2024-02-16T04:47:37;4.90;;;4.00;;
18104;SDS011;9179;50.968;3.134;2024-02-16T04:50:04;4.85;;;4.35;;
18104;SDS011;9179;50.968;3.134;2024-02-16T04:52:35;5.03;;;4.53;;
18104;SDS011;9179;50.968;3.134;2024-02-16T04:55:04;4.95;;;4.47;;
18104;SDS011;9179;50.968;3.134;2024-02-16T04:57:33;4.35;;;3.95;;
18104;SDS011;9179;50.968;3.134;2024-02-16T05:00:01;5.13;;;4.28;;
18104;SDS011;9179;50.968;3.134;2024-02-16T05:02:28;4.38;;;4.05;;
18104;SDS011;9179;50.968;3.134;2024-02-16T05:04:55;4.95;;;4.30;;
18104;SDS011;9179;50.968;3.134;2024-02-16T05:07:22;5.47;;;4.10;;
18104;SDS011;9179;50.968;3.134;2024-02-16T05:09:49;4.85;;;3.95;;
18104;SDS011;9179;50.968;3.134;2024-02-16T05:12:21;4.40;;;4.00;;
18104;SDS011;9179;50.968;3.134;2024-02-16T05:14:49;7.68;;;6.82;;
18104;SDS011;9179;50.968;3.134;2024-02-16T05:17:17;5.20;;;4.57;;
18104;SDS011;9179;50.968;3.134;2024-02-16T05:19:44;5.80;;;4.45;;
18104;SDS011;9179;50.968;3.134;2024-02-16T05:22:11;4.35;;;3.95;;
18104;SDS011;9179;50.968;3.134;2024-02-16T05:24:38;7.30;;;4.80;;
18104;SDS011;9179;50.968;3.134;2024-02-16T05:27:05;5.43;;;4.25;;
18104;SDS011;9179;50.968;3.134;2024-02-16T05:29:32;5.45;;;4.13;;
18104;SDS011;9179;50.968;3.134;2024-02-16T05:32:01;5.07;;;4.10;;
18104;SDS011;9179;50.968;3.134;2024-02-16T05:34:28;4.78;;;4.10;;
18104;SDS011;9179;50.968;3.134;2024-02-16T05:36:58;4.47;;;4.07;;
18104;SDS011;9179;50.968;3.134;2024-02-16T05:39:26;4.53;;;4.18;;
18104;SDS011;9179;50.968;3.134;2024-02-16T05:41:56;4.53;;;4.18;;
18104;SDS011;9179;50.968;3.134;2024-02-16T05:44:23;5.65;;;3.88;;
18104;SDS011;9179;50.968;3.134;2024-02-16T05:46:50;4.97;;;4.10;;
18104;SDS011;9179;50.968;3.134;2024-02-16T05:49:18;5.93;;;3.97;;
18104;SDS011;9179;50.968;3.134;2024-02-16T05:51:46;4.45;;;4.05;;
18104;SDS011;9179;50.968;3.134;2024-02-16T05:54:42;5.10;;;3.60;;
18104;SDS011;9179;50.968;3.134;2024-02-16T05:57:09;4.32;;;4.00;;
18104;SDS011;9179;50.968;3.134;2024-02-16T05:59:37;5.85;;;3.90;;
18104;SDS011;9179;50.968;3.134;2024-02-16T06:02:04;4.90;;;4.30;;
18104;SDS011;9179;50.968;3.134;2024-02-16T06:04:33;5.65;;;4.07;;
18104;SDS011;9179;50.968;3.134;2024-02-16T06:07:00;5.30;;;4.10;;
18104;SDS011;9179;50.968;3.134;2024-02-16T06:09:27;4.50;;;4.10;;
18104;SDS011;9179;50.968;3.134;2024-02-16T06:12:00;6.55;;;4.60;;
18104;SDS011;9179;50.968;3.134;2024-02-16T06:14:29;5.32;;;4.68;;
18104;SDS011;9179;50.968;3.134;2024-02-16T06:16:56;5.68;;;4.32;;
18104;SDS011;9179;50.968;3.134;2024-02-16T06:19:23;6.95;;;4.80;;
18104;SDS011;9179;50.968;3.134;2024-02-16T06:21:53;6.00;;;5.00;;
18104;SDS011;9179;50.968;3.134;2024-02-16T06:24:21;4.50;;;4.10;;
18104;SDS011;9179;50.968;3.134;2024-02-16T06:26:48;6.28;;;5.38;;
18104;SDS011;9179;50.968;3.134;2024-02-16T06:29:15;5.22;;;4.50;;
18104;SDS011;9179;50.968;3.134;2024-02-16T06:31:42;6.03;;;4.55;;
18104;SDS011;9179;50.968;3.134;2024-02-16T06:34:09;5.45;;;4.95;;
18104;SDS011;9179;50.968;3.134;2024-02-16T06:36:36;7.13;;;5.20;;
18104;SDS011;9179;50.968;3.134;2024-02-16T06:39:04;6.95;;;4.25;;
18104;SDS011;9179;50.968;3.134;2024-02-16T06:41:31;6.03;;;5.53;;
18104;SDS011;9179;50.968;3.134;2024-02-16T06:43:58;6.32;;;4.70;;
18104;SDS011;9179;50.968;3.134;2024-02-16T06:46:25;4.55;;;4.15;;
18104;SDS011;9179;50.968;3.134;2024-02-16T06:48:54;4.53;;;3.75;;
18104;SDS011;9179;50.968;3.134;2024-02-16T06:51:22;4.32;;;3.88;;
18104;SDS011;9179;50.968;3.134;2024-02-16T06:53:49;5.53;;;4.82;;
18104;SDS011;9179;50.968;3.134;2024-02-16T06:56:18;5.18;;;4.18;;
18104;SDS011;9179;50.968;3.134;2024-02-16T06:58:45;4.18;;;3.88;;
18104;SDS011;9179;50.968;3.134;2024-02-16T07:01:12;6.05;;;4.75;;
18104;SDS011;9179;50.968;3.134;2024-02-16T07:03:39;6.72;;;4.88;;
18104;SDS011;9179;50.968;3.134;2024-02-16T07:06:06;5.80;;;4.95;;
18104;SDS011;9179;50.968;3.134;2024-02-16T07:08:35;9.23;;;5.05;;
18104;SDS011;9179;50.968;3.134;2024-02-16T07:11:03;5.93;;;4.43;;
18104;SDS011;9179;50.968;3.134;2024-02-16T07:13:32;5.53;;;4.97;;
18104;SDS011;9179;50.968;3.134;2024-02-16T07:15:59;6.25;;;5.65;;
18104;SDS011;9179;50.968;3.134;2024-02-16T07:18:26;5.07;;;4.32;;
18104;SDS011;9179;50.968;3.134;2024-02-16T07:20:53;6.22;;;5.63;;
18104;SDS011;9179;50.968;3.134;2024-02-16T07:23:19;6.00;;;4.97;;
18104;SDS011;9179;50.968;3.134;2024-02-16T07:25:46;5.47;;;4.90;;
18104;SDS011;9179;50.968;3.134;2024-02-16T07:28:14;5.38;;;4.88;;
18104;SDS011;9179;50.968;3.134;2024-02-16T07:30:42;4.90;;;4.50;;
18104;SDS011;9179;50.968;3.134;2024-02-16T07:33:09;6.03;;;4.70;;
18104;SDS011;9179;50.968;3.134;2024-02-16T07:35:36;10.55;;;6.45;;
18104;SDS011;9179;50.968;3.134;2024-02-16T07:38:04;6.88;;;4.88;;
18104;SDS011;9179;50.968;3.134;2024-02-16T07:40:31;5.25;;;4.70;;
18104;SDS011;9179;50.968;3.134;2024-02-16T07:42:58;5.72;;;5.00;;
18104;SDS011;9179;50.968;3.134;2024-02-16T07:45:25;5.88;;;4.80;;
18104;SDS011;9179;50.968;3.134;2024-02-16T07:47:53;7.20;;;5.70;;
18104;SDS011;9179;50.968;3.134;2024-02-16T07:50:21;8.48;;;4.93;;
18104;SDS011;9179;50.968;3.134;2024-02-16T07:52:48;5.20;;;4.75;;
18104;SDS011;9179;50.968;3.134;2024-02-16T07:55:15;8.23;;;5.55;;
18104;SDS011;9179;50.968;3.134;2024-02-16T07:57:43;6.03;;;5.20;;
18104;SDS011;9179;50.968;3.134;2024-02-16T08:00:11;5.85;;;4.78;;
18104;SDS011;9179;50.968;3.134;2024-02-16T08:02:38;7.53;;;4.93;;
18104;SDS011;9179;50.968;3.134;2024-02-16T08:05:08;5.70;;;5.10;;
18104;SDS011;9179;50.968;3.134;2024-02-16T08:07:35;6.25;;;4.78;;
18104;SDS011;9179;50.968;3.134;2024-02-16T08:10:02;5.78;;;4.90;;
18104;SDS011;9179;50.968;3.134;2024-02-16T08:12:29;6.50;;;5.38;;
18104;SDS011;9179;50.968;3.134;2024-02-16T08:14:57;7.95;;;5.82;;
18104;SDS011;9179;50.968;3.134;2024-02-16T08:17:24;5.88;;;5.38;;
18104;SDS011;9179;50.968;3.134;2024-02-16T08:19:52;6.72;;;5.20;;
18104;SDS011;9179;50.968;3.134;2024-02-16T08:22:21;6.00;;;5.40;;
18104;SDS011;9179;50.968;3.134;2024-02-16T08:24:48;6.50;;;4.80;;
18104;SDS011;9179;50.968;3.134;2024-02-16T08:27:15;8.05;;;4.88;;
18104;SDS011;9179;50.968;3.134;2024-02-16T08:29:42;6.03;;;5.38;;
18104;SDS011;9179;50.968;3.134;2024-02-16T08:32:09;9.55;;;5.88;;
18104;SDS011;9179;50.968;3.134;2024-02-16T08:34:36;8.00;;;5.90;;
18104;SDS011;9179;50.968;3.134;2024-02-16T08:37:04;6.28;;;5.70;;
18104;SDS011;9179;50.968;3.134;2024-02-16T08:39:33;8.27;;;5.72;;
18104;SDS011;9179;50.968;3.134;2024-02-16T08:42:00;8.93;;;5.50;;
18104;SDS011;9179;50.968;3.134;2024-02-16T08:44:28;6.10;;;5.50;;
18104;SDS011;9179;50.968;3.134;2024-02-16T08:46:55;6.43;;;5.18;;
18104;SDS011;9179;50.968;3.134;2024-02-16T08:49:22;8.20;;;6.35;;
18104;SDS011;9179;50.968;3.134;2024-02-16T08:51:49;7.20;;;5.80;;
18104;SDS011;9179;50.968;3.134;2024-02-16T08:54:16;8.13;;;5.70;;
18104;SDS011;9179;50.968;3.134;2024-02-16T08:56:45;10.10;;;6.80;;
18104;SDS011;9179;50.968;3.134;2024-02-16T08:59:13;6.78;;;6.13;;
18104;SDS011;9179;50.968;3.134;2024-02-16T09:01:41;8.10;;;6.45;;
18104;SDS011;9179;50.968;3.134;2024-02-16T09:04:09;7.38;;;6.22;;
18104;SDS011;9179;50.968;3.134;2024-02-16T09:06:36;7.60;;;5.88;;
18104;SDS011;9179;50.968;3.134;2024-02-16T09:09:04;7.78;;;7.13;;
18104;SDS011;9179;50.968;3.134;2024-02-16T09:11:32;9.20;;;6.75;;
18104;SDS011;9179;50.968;3.134;2024-02-16T09:14:00;8.13;;;7.28;;
18104;SDS011;9179;50.968;3.134;2024-02-16T09:16:27;7.72;;;7.13;;
18104;SDS011;9179;50.968;3.134;2024-02-16T09:18:54;9.60;;;7.45;;
18104;SDS011;9179;50.968;3.134;2024-02-16T09:21:21;8.02;;;7.18;;
18104;SDS011;9179;50.968;3.134;2024-02-16T09:23:52;8.95;;;7.28;;
18104;SDS011;9179;50.968;3.134;2024-02-16T09:26:19;8.82;;;7.60;;
18104;SDS011;9179;50.968;3.134;2024-02-16T09:28:46;7.40;;;6.70;;
18104;SDS011;9179;50.968;3.134;2024-02-16T09:31:15;7.97;;;7.28;;
18104;SDS011;9179;50.968;3.134;2024-02-16T09:33:42;10.90;;;7.72;;
18104;SDS011;9179;50.968;3.134;2024-02-16T09:36:09;9.18;;;7.75;;
18104;SDS011;9179;50.968;3.134;2024-02-16T09:38:36;9.20;;;8.23;;
18104;SDS011;9179;50.968;3.134;2024-02-16T09:41:03;10.73;;;8.10;;
18104;SDS011;9179;50.968;3.134;2024-02-16T09:43:30;8.77;;;7.88;;
18104;SDS011;9179;50.968;3.134;2024-02-16T09:45:58;9.85;;;8.15;;
18104;SDS011;9179;50.968;3.134;2024-02-16T09:48:27;9.30;;;8.35;;
18104;SDS011;9179;50.968;3.134;2024-02-16T09:50:55;8.98;;;8.05;;
18104;SDS011;9179;50.968;3.134;2024-02-16T09:53:24;12.20;;;9.30;;
18104;SDS011;9179;50.968;3.134;2024-02-16T09:55:52;9.02;;;8.00;;
18104;SDS011;9179;50.968;3.134;2024-02-16T09:58:19;10.77;;;8.23;;
18104;SDS011;9179;50.968;3.134;2024-02-16T10:00:50;9.65;;;8.85;;
18104;SDS011;9179;50.968;3.134;2024-02-16T10:03:21;14.02;;;9.60;;
18104;SDS011;9179;50.968;3.134;2024-02-16T10:05:51;10.80;;;9.55;;
18104;SDS011;9179;50.968;3.134;2024-02-16T10:08:18;12.73;;;11.43;;
18104;SDS011;9179;50.968;3.134;2024-02-16T10:10:45;13.23;;;11.98;;
18104;SDS011;9179;50.968;3.134;2024-02-16T10:13:15;17.30;;;12.80;;
18104;SDS011;9179;50.968;3.134;2024-02-16T10:15:42;14.75;;;11.90;;
18104;SDS011;9179;50.968;3.134;2024-02-16T10:18:09;16.45;;;13.13;;
18104;SDS011;9179;50.968;3.134;2024-02-16T10:20:37;17.30;;;13.13;;
18104;SDS011;9179;50.968;3.134;2024-02-16T10:23:06;16.33;;;13.57;;
18104;SDS011;9179;50.968;3.134;2024-02-16T10:25:34;16.00;;;13.43;;
18104;SDS011;9179;50.968;3.134;2024-02-16T10:28:03;12.60;;;11.23;;
18104;SDS011;9179;50.968;3.134;2024-02-16T10:30:34;12.02;;;10.02;;
18104;SDS011;9179;50.968;3.134;2024-02-16T10:33:02;10.70;;;9.63;;
18104;SDS011;9179;50.968;3.134;2024-02-16T10:35:30;9.35;;;8.25;;
18104;SDS011;9179;50.968;3.134;2024-02-16T10:37:59;8.88;;;7.95;;
18104;SDS011;9179;50.968;3.134;2024-02-16T10:40:31;6.30;;;5.75;;
18104;SDS011;9179;50.968;3.134;2024-02-16T10:43:00;7.63;;;6.40;;
18104;SDS011;9179;50.968;3.134;2024-02-16T10:45:31;5.82;;;5.32;;
18104;SDS011;9179;50.968;3.134;2024-02-16T10:48:00;5.72;;;5.22;;
18104;SDS011;9179;50.968;3.134;2024-02-16T10:50:27;7.45;;;5.40;;
18104;SDS011;9179;50.968;3.134;2024-02-16T10:52:54;5.03;;;4.63;;
18104;SDS011;9179;50.968;3.134;2024-02-16T10:55:23;5.60;;;4.45;;
18104;SDS011;9179;50.968;3.134;2024-02-16T10:57:52;5.03;;;4.63;;
18104;SDS011;9179;50.968;3.134;2024-02-16T11:00:20;4.40;;;3.92;;
18104;SDS011;9179;50.968;3.134;2024-02-16T11:02:51;5.05;;;4.55;;
18104;SDS011;9179;50.968;3.134;2024-02-16T11:05:20;4.97;;;4.53;;
18104;SDS011;9179;50.968;3.134;2024-02-16T11:08:02;4.75;;;4.35;;
18104;SDS011;9179;50.968;3.134;2024-02-16T11:10:30;5.97;;;3.70;;
18104;SDS011;9179;50.968;3.134;2024-02-16T11:13:01;4.65;;;3.65;;
18104;SDS011;9179;50.968;3.134;2024-02-16T11:15:30;3.60;;;3.30;;
18104;SDS011;9179;50.968;3.134;2024-02-16T11:18:00;4.05;;;3.65;;
18104;SDS011;9179;50.968;3.134;2024-02-16T11:20:28;5.68;;;3.55;;
18104;SDS011;9179;50.968;3.134;2024-02-16T11:23:04;3.63;;;3.33;;
18104;SDS011;9179;50.968;3.134;2024-02-16T11:25:32;3.67;;;3.38;;
18104;SDS011;9179;50.968;3.134;2024-02-16T11:28:02;3.55;;;3.25;;
18104;SDS011;9179;50.968;3.134;2024-02-16T11:30:32;3.55;;;3.25;;
18104;SDS011;9179;50.968;3.134;2024-02-16T11:33:00;3.60;;;3.30;;
18104;SDS011;9179;50.968;3.134;2024-02-16T11:35:27;4.03;;;3.72;;
18104;SDS011;9179;50.968;3.134;2024-02-16T11:37:55;3.88;;;3.42;;
18104;SDS011;9179;50.968;3.134;2024-02-16T11:40:23;4.68;;;4.05;;
18104;SDS011;9179;50.968;3.134;2024-02-16T11:42:57;3.53;;;3.22;;
18104;SDS011;9179;50.968;3.134;2024-02-16T11:45:25;3.55;;;3.25;;
18104;SDS011;9179;50.968;3.134;2024-02-16T11:48:02;5.03;;;3.70;;
18104;SDS011;9179;50.968;3.134;2024-02-16T11:50:30;3.80;;;3.35;;
18104;SDS011;9179;50.968;3.134;2024-02-16T11:52:57;3.60;;;3.30;;
18104;SDS011;9179;50.968;3.134;2024-02-16T11:55:24;4.00;;;3.10;;
18104;SDS011;9179;50.968;3.134;2024-02-16T11:57:51;4.90;;;4.45;;
18104;SDS011;9179;50.968;3.134;2024-02-16T12:00:19;3.80;;;3.38;;
18104;SDS011;9179;50.968;3.134;2024-02-16T12:02:58;4.80;;;4.40;;
18104;SDS011;9179;50.968;3.134;2024-02-16T12:05:25;4.05;;;3.45;;
18104;SDS011;9179;50.968;3.134;2024-02-16T12:07:52;3.38;;;2.88;;
18104;SDS011;9179;50.968;3.134;2024-02-16T12:10:19;3.47;;;3.22;;
18104;SDS011;9179;50.968;3.134;2024-02-16T12:12:47;4.50;;;4.03;;
18104;SDS011;9179;50.968;3.134;2024-02-16T12:15:14;3.88;;;3.58;;
18104;SDS011;9179;50.968;3.134;2024-02-16T12:17:43;3.05;;;2.85;;
18104;SDS011;9179;50.968;3.134;2024-02-16T12:20:13;4.78;;;3.25;;
18104;SDS011;9179;50.968;3.134;2024-02-16T12:22:40;2.88;;;2.60;;
18104;SDS011;9179;50.968;3.134;2024-02-16T12:25:07;2.30;;;2.20;;
18104;SDS011;9179;50.968;3.134;2024-02-16T12:27:34;4.68;;;2.90;;
18104;SDS011;9179;50.968;3.134;2024-02-16T12:30:01;2.78;;;2.63;;
18104;SDS011;9179;50.968;3.134;2024-02-16T12:32:28;3.30;;;2.83;;
18104;SDS011;9179;50.968;3.134;2024-02-16T12:34:55;2.83;;;2.63;;
18104;SDS011;9179;50.968;3.134;2024-02-16T12:37:24;3.53;;;3.22;;
18104;SDS011;9179;50.968;3.134;2024-02-16T12:39:51;3.22;;;2.97;;
18104;SDS011;9179;50.968;3.134;2024-02-16T12:42:17;3.03;;;2.83;;
18104;SDS011;9179;50.968;3.134;2024-02-16T12:44:44;4.93;;;3.10;;
18104;SDS011;9179;50.968;3.134;2024-02-16T12:47:11;3.40;;;3.20;;
18104;SDS011;9179;50.968;3.134;2024-02-16T12:49:38;3.42;;;2.83;;
18104;SDS011;9179;50.968;3.134;2024-02-16T12:52:05;3.05;;;2.72;;
18104;SDS011;9179;50.968;3.134;2024-02-16T12:54:34;3.58;;;2.47;;
18104;SDS011;9179;50.968;3.134;2024-02-16T12:57:01;2.72;;;2.53;;
18104;SDS011;9179;50.968;3.134;2024-02-16T12:59:28;2.17;;;1.98;;
18104;SDS011;9179;50.968;3.134;2024-02-16T13:01:55;3.67;;;2.35;;
18104;SDS011;9179;50.968;3.134;2024-02-16T13:04:22;2.50;;;2.30;;
18104;SDS011;9179;50.968;3.134;2024-02-16T13:06:49;3.20;;;2.35;;
18104;SDS011;9179;50.968;3.134;2024-02-16T13:09:17;1.92;;;1.77;;
18104;SDS011;9179;50.968;3.134;2024-02-16T13:11:45;1.70;;;1.60;;
18104;SDS011;9179;50.968;3.134;2024-02-16T13:14:19;3.63;;;1.65;;
18104;SDS011;9179;50.968;3.134;2024-02-16T13:16:46;2.35;;;2.08;;
18104;SDS011;9179;50.968;3.134;2024-02-16T13:19:13;1.63;;;1.52;;
18104;SDS011;9179;50.968;3.134;2024-02-16T13:21:41;1.38;;;1.27;;
18104;SDS011;9179;50.968;3.134;2024-02-16T13:24:09;1.80;;;1.70;;
18104;SDS011;9179;50.968;3.134;2024-02-16T13:26:36;2.67;;;2.05;;
18104;SDS011;9179;50.968;3.134;2024-02-16T13:29:04;2.20;;;1.95;;
18104;SDS011;9179;50.968;3.134;2024-02-16T13:31:31;2.15;;;2.00;;
18104;SDS011;9179;50.968;3.134;2024-02-16T13:33:58;2.42;;;1.83;;
18104;SDS011;9179;50.968;3.134;2024-02-16T13:36:26;3.20;;;2.10;;
18104;SDS011;9179;50.968;3.134;2024-02-16T13:38:53;3.17;;;2.20;;
18104;SDS011;9179;50.968;3.134;2024-02-16T13:41:20;2.42;;;1.83;;
18104;SDS011;9179;50.968;3.134;2024-02-16T13:43:47;3.45;;;3.13;;
18104;SDS011;9179;50.968;3.134;2024-02-16T13:46:15;2.83;;;2.60;;
18104;SDS011;9179;50.968;3.134;2024-02-16T13:48:42;2.97;;;2.58;;
18104;SDS011;9179;50.968;3.134;2024-02-16T13:51:09;2.65;;;2.45;;
18104;SDS011;9179;50.968;3.134;2024-02-16T13:53:36;2.55;;;2.35;;
18104;SDS011;9179;50.968;3.134;2024-02-16T13:56:04;2.30;;;2.15;;
18104;SDS011;9179;50.968;3.134;2024-02-16T13:58:31;3.47;;;2.47;;
18104;SDS011;9179;50.968;3.134;2024-02-16T14:00:59;3.08;;;2.78;;
18104;SDS011;9179;50.968;3.134;2024-02-16T14:03:29;3.38;;;3.08;;
18104;SDS011;9179;50.968;3.134;2024-02-16T14:05:57;4.57;;;3.72;;
18104;SDS011;9179;50.968;3.134;2024-02-16T14:08:25;3.30;;;3.00;;
18104;SDS011;9179;50.968;3.134;2024-02-16T14:10:52;4.03;;;3.03;;
18104;SDS011;9179;50.968;3.134;2024-02-16T14:13:18;3.40;;;3.20;;
18104;SDS011;9179;50.968;3.134;2024-02-16T14:15:47;4.22;;;3.33;;
18104;SDS011;9179;50.968;3.134;2024-02-16T14:18:14;3.50;;;3.20;;
18104;SDS011;9179;50.968;3.134;2024-02-16T14:20:42;3.63;;;3.33;;
18104;SDS011;9179;50.968;3.134;2024-02-16T14:23:09;4.95;;;3.97;;
18104;SDS011;9179;50.968;3.134;2024-02-16T14:25:36;3.35;;;3.15;;
18104;SDS011;9179;50.968;3.134;2024-02-16T14:28:05;3.95;;;3.67;;
18104;SDS011;9179;50.968;3.134;2024-02-16T14:30:32;7.43;;;3.35;;
18104;SDS011;9179;50.968;3.134;2024-02-16T14:32:59;3.70;;;3.20;;
18104;SDS011;9179;50.968;3.134;2024-02-16T14:35:29;3.28;;;2.97;;
18104;SDS011;9179;50.968;3.134;2024-02-16T14:37:58;3.53;;;3.22;;
18104;SDS011;9179;50.968;3.134;2024-02-16T14:40:25;3.25;;;2.95;;
18104;SDS011;9179;50.968;3.134;2024-02-16T14:42:52;4.55;;;3.30;;
18104;SDS011;9179;50.968;3.134;2024-02-16T14:45:19;4.22;;;3.05;;
18104;SDS011;9179;50.968;3.134;2024-02-16T14:47:46;3.95;;;3.10;;
18104;SDS011;9179;50.968;3.134;2024-02-16T14:50:14;3.70;;;2.58;;
18104;SDS011;9179;50.968;3.134;2024-02-16T14:52:41;2.95;;;2.75;;
18104;SDS011;9179;50.968;3.134;2024-02-16T14:55:10;5.80;;;2.45;;
18104;SDS011;9179;50.968;3.134;2024-02-16T14:57:38;2.85;;;2.65;;
18104;SDS011;9179;50.968;3.134;2024-02-16T15:00:06;2.33;;;2.10;;
18104;SDS011;9179;50.968;3.134;2024-02-16T15:02:34;2.35;;;2.15;;
18104;SDS011;9179;50.968;3.134;2024-02-16T15:05:02;2.85;;;2.55;;